createdAt,value
2023-06-25T00:01:09.221Z,4.30
2023-06-25T00:03:56.891Z,4.50
2023-06-25T00:06:29.638Z,5.80
2023-06-25T00:11:32.467Z,5.40
2023-06-25T00:14:05.742Z,5.80
2023-06-25T00:16:37.916Z,5.90
2023-06-25T00:19:10.387Z,5.40
2023-06-25T00:21:43.061Z,6.10
2023-06-25T00:24:15.705Z,6.10
2023-06-25T00:29:18.884Z,6.40
2023-06-25T00:31:51.119Z,6.10
2023-06-25T00:34:23.250Z,6.60
2023-06-25T00:36:55.929Z,6.00
2023-06-25T00:39:28.579Z,5.70
2023-06-25T00:42:05.154Z,6.50
2023-06-25T00:44:41.842Z,5.30
2023-06-25T00:47:15.551Z,5.70
2023-06-25T00:49:49.267Z,5.50
2023-06-25T00:52:21.598Z,5.80
2023-06-25T00:54:53.868Z,5.70
2023-06-25T00:57:28.357Z,5.50
2023-06-25T01:00:01.132Z,5.80
2023-06-25T01:02:44.552Z,5.60
2023-06-25T01:05:22.374Z,6.00
2023-06-25T01:07:58.496Z,5.50
2023-06-25T01:10:30.754Z,6.00
2023-06-25T01:13:03.003Z,5.60
2023-06-25T01:15:35.545Z,6.20
2023-06-25T01:18:08.467Z,6.10
2023-06-25T01:23:12.157Z,5.30
2023-06-25T01:28:21.449Z,6.10
2023-06-25T01:30:54.390Z,5.40
2023-06-25T01:33:27.759Z,5.40
2023-06-25T01:35:59.967Z,6.10
2023-06-25T01:38:32.542Z,5.90
2023-06-25T01:43:35.248Z,5.40
2023-06-25T01:46:07.615Z,5.70
2023-06-25T01:48:40.027Z,6.40
2023-06-25T01:51:12.403Z,6.30
2023-06-25T01:53:44.549Z,6.30
2023-06-25T01:56:16.585Z,6.30
2023-06-25T01:58:51.372Z,5.70
2023-06-25T02:01:23.565Z,6.70
2023-06-25T02:03:55.939Z,6.80
2023-06-25T02:06:28.585Z,6.20
2023-06-25T02:09:01.505Z,6.20
2023-06-25T02:11:37.106Z,6.80
2023-06-25T02:14:10.166Z,6.90
2023-06-25T02:16:42.219Z,6.40
2023-06-25T02:19:14.474Z,6.80
2023-06-25T02:21:46.715Z,6.50
2023-06-25T02:24:21.210Z,6.60
2023-06-25T02:26:53.888Z,7.00
2023-06-25T02:31:57.597Z,6.50
2023-06-25T02:34:30.311Z,6.80
2023-06-25T02:37:12.520Z,6.30
2023-06-25T02:39:45.211Z,7.10
2023-06-25T02:44:48.266Z,7.10
2023-06-25T02:47:20.411Z,6.60
2023-06-25T02:49:53.191Z,6.80
2023-06-25T02:54:56.593Z,6.50
2023-06-25T02:57:30.663Z,7.50
2023-06-25T03:00:06.244Z,7.90
2023-06-25T03:02:40.067Z,7.60
2023-06-25T03:05:13.865Z,7.10
2023-06-25T03:07:55.860Z,7.40
2023-06-25T03:10:31.093Z,7.70
2023-06-25T03:13:04.607Z,6.50
2023-06-25T03:15:38.446Z,7.00
2023-06-25T03:18:11.910Z,6.60
2023-06-25T03:20:46.074Z,6.90
2023-06-25T03:23:21.777Z,7.00
2023-06-25T03:25:56.486Z,6.60
2023-06-25T03:28:33.292Z,6.90
2023-06-25T03:31:07.525Z,7.50
2023-06-25T03:33:48.969Z,7.00
2023-06-25T03:36:26.396Z,7.00
2023-06-25T03:39:00.905Z,7.30
2023-06-25T03:41:34.557Z,7.70
2023-06-25T03:44:09.294Z,7.30
2023-06-25T03:46:42.788Z,7.50
2023-06-25T03:49:17.363Z,7.20
2023-06-25T03:51:51.021Z,6.90
2023-06-25T03:54:24.469Z,6.90
2023-06-25T03:56:59.882Z,6.90
2023-06-25T03:59:34.132Z,7.50
2023-06-25T04:02:08.999Z,7.30
2023-06-25T04:04:45.061Z,7.30
2023-06-25T04:07:18.188Z,7.20
2023-06-25T04:09:51.618Z,8.00
2023-06-25T04:12:25.006Z,7.70
2023-06-25T04:14:59.433Z,8.20
2023-06-25T04:17:33.091Z,7.70
2023-06-25T04:20:07.407Z,7.70
2023-06-25T04:22:40.884Z,7.60
2023-06-25T04:25:13.839Z,7.50
2023-06-25T04:27:50.306Z,7.50
2023-06-25T04:30:25.237Z,7.40
2023-06-25T04:33:00.319Z,8.30
2023-06-25T04:35:36.061Z,7.00
2023-06-25T04:38:12.162Z,6.90
2023-06-25T04:40:46.105Z,7.10
2023-06-25T04:43:19.251Z,7.20
2023-06-25T04:45:53.261Z,6.60
2023-06-25T04:48:26.623Z,7.20
2023-06-25T04:51:02.191Z,7.10
2023-06-25T04:53:35.169Z,7.40
2023-06-25T04:56:08.774Z,7.20
2023-06-25T04:58:41.836Z,6.60
2023-06-25T05:01:14.386Z,7.10
2023-06-25T05:03:47.403Z,7.10
2023-06-25T05:06:23.255Z,6.20
2023-06-25T05:08:57.105Z,6.50
2023-06-25T05:11:31.453Z,6.50
2023-06-25T05:14:09.077Z,6.60
2023-06-25T05:16:43.380Z,6.00
2023-06-25T05:19:22.934Z,6.10
2023-06-25T05:21:56.867Z,6.80
2023-06-25T05:24:31.357Z,5.40
2023-06-25T05:27:05.860Z,5.70
2023-06-25T05:29:39.390Z,5.80
2023-06-25T05:32:13.263Z,5.00
2023-06-25T05:34:46.625Z,4.80
2023-06-25T05:37:23.155Z,4.80
2023-06-25T05:39:56.121Z,5.00
2023-06-25T05:42:30.574Z,4.80
2023-06-25T05:45:03.889Z,4.80
2023-06-25T05:47:37.642Z,5.00
2023-06-25T05:50:12.415Z,4.80
2023-06-25T05:52:46.154Z,4.40
2023-06-25T05:55:19.900Z,3.60
2023-06-25T05:57:56.098Z,4.00
2023-06-25T06:00:29.761Z,4.00
2023-06-25T06:03:03.661Z,3.50
2023-06-25T06:05:38.532Z,3.80
2023-06-25T06:08:12.317Z,3.70
2023-06-25T06:10:46.674Z,3.40
2023-06-25T06:13:20.576Z,4.40
2023-06-25T06:15:55.073Z,4.30
2023-06-25T06:18:29.791Z,4.20
2023-06-25T06:21:06.081Z,4.50
2023-06-25T06:23:39.089Z,4.10
2023-06-25T06:26:12.885Z,3.90
2023-06-25T06:28:46.086Z,4.90
2023-06-25T06:31:20.394Z,3.90
2023-06-25T06:33:55.114Z,4.40
2023-06-25T06:36:29.242Z,4.40
2023-06-25T06:39:04.066Z,5.00
2023-06-25T06:41:49.464Z,4.80
2023-06-25T06:44:24.798Z,4.50
2023-06-25T06:47:01.468Z,4.80
2023-06-25T06:49:42.017Z,4.50
2023-06-25T06:52:17.931Z,4.00
2023-06-25T06:54:51.274Z,4.40
2023-06-25T06:57:25.406Z,4.20
2023-06-25T06:59:58.658Z,4.40
2023-06-25T07:02:32.513Z,4.20
2023-06-25T07:05:05.717Z,4.60
2023-06-25T07:07:38.462Z,4.10
2023-06-25T07:10:12.574Z,4.60
2023-06-25T07:12:45.685Z,4.50
2023-06-25T07:15:18.727Z,4.30
2023-06-25T07:17:52.345Z,5.20
2023-06-25T07:20:25.685Z,4.50
2023-06-25T07:22:58.847Z,4.90
2023-06-25T07:25:33.159Z,4.70
2023-06-25T07:28:06.919Z,4.50
2023-06-25T07:30:40.216Z,4.70
2023-06-25T07:33:13.241Z,5.00
2023-06-25T07:35:46.315Z,5.00
2023-06-25T07:38:19.660Z,4.30
2023-06-25T07:40:52.934Z,4.90
2023-06-25T07:43:27.848Z,4.70
2023-06-25T07:46:02.792Z,4.70
2023-06-25T07:48:39.094Z,4.30
2023-06-25T07:51:12.611Z,5.00
2023-06-25T07:53:45.680Z,4.40
2023-06-25T07:56:19.046Z,4.60
2023-06-25T07:58:52.442Z,4.50
2023-06-25T08:01:25.664Z,4.30
2023-06-25T08:03:59.057Z,4.70
2023-06-25T08:06:34.715Z,3.60
2023-06-25T08:09:11.875Z,4.20
2023-06-25T08:11:46.534Z,3.90
2023-06-25T08:14:19.200Z,4.30
2023-06-25T08:16:56.597Z,3.80
2023-06-25T08:19:30.716Z,4.30
2023-06-25T08:22:05.188Z,3.90
2023-06-25T08:24:39.609Z,3.80
2023-06-25T08:27:12.283Z,4.10
2023-06-25T08:29:47.049Z,3.80
2023-06-25T08:32:21.123Z,4.60
2023-06-25T08:34:56.907Z,4.00
2023-06-25T08:37:32.768Z,4.30
2023-06-25T08:40:13.145Z,4.40
2023-06-25T08:42:47.921Z,4.00
2023-06-25T08:45:22.677Z,4.30
2023-06-25T08:48:02.084Z,4.20
2023-06-25T08:50:35.383Z,4.40
2023-06-25T08:53:09.185Z,4.20
2023-06-25T08:55:47.236Z,4.20
2023-06-25T08:58:22.148Z,4.10
2023-06-25T09:00:55.779Z,4.10
2023-06-25T09:03:30.003Z,3.90
2023-06-25T09:06:05.839Z,3.80
2023-06-25T09:08:45.511Z,4.00
2023-06-25T09:11:20.658Z,3.50
2023-06-25T09:13:59.034Z,3.80
2023-06-25T09:16:33.460Z,3.40
2023-06-25T09:19:24.291Z,3.50
2023-06-25T09:22:14.681Z,4.00
2023-06-25T09:24:50.024Z,3.60
2023-06-25T09:27:25.632Z,3.60
2023-06-25T09:30:04.612Z,3.40
2023-06-25T09:32:39.183Z,3.30
2023-06-25T09:35:13.053Z,4.00
2023-06-25T09:37:46.863Z,3.50
2023-06-25T09:40:23.413Z,3.80
2023-06-25T09:42:58.139Z,3.50
2023-06-25T09:45:32.658Z,3.60
2023-06-25T09:48:12.628Z,3.60
2023-06-25T09:50:50.192Z,3.30
2023-06-25T09:53:29.441Z,4.20
2023-06-25T09:56:05.417Z,4.40
2023-06-25T09:58:39.674Z,3.90
2023-06-25T10:01:13.683Z,5.00
2023-06-25T10:03:47.763Z,4.00
2023-06-25T10:06:21.542Z,4.10
2023-06-25T10:08:57.202Z,4.80
2023-06-25T10:11:31.294Z,4.00
2023-06-25T10:14:07.582Z,4.60
2023-06-25T10:16:41.537Z,4.80
2023-06-25T10:19:24.611Z,4.20
2023-06-25T10:22:12.166Z,4.20
2023-06-25T10:24:50.253Z,4.20
2023-06-25T10:27:32.288Z,5.10
2023-06-25T10:30:16.382Z,4.30
2023-06-25T10:32:50.251Z,4.50
2023-06-25T10:35:23.565Z,4.70
2023-06-25T10:37:57.210Z,4.50
2023-06-25T10:40:37.695Z,4.70
2023-06-25T10:43:18.142Z,4.50
2023-06-25T10:45:55.774Z,4.80
2023-06-25T10:48:30.360Z,4.70
2023-06-25T10:51:04.260Z,4.60
2023-06-25T10:53:38.491Z,4.30
2023-06-25T10:56:12.180Z,4.60
2023-06-25T10:58:45.757Z,4.00
2023-06-25T11:01:19.466Z,4.80
2023-06-25T11:03:52.881Z,4.90
2023-06-25T11:06:25.864Z,4.80
2023-06-25T11:09:00.747Z,4.50
2023-06-25T11:11:35.491Z,4.70
2023-06-25T11:14:09.490Z,5.00
2023-06-25T11:16:49.300Z,5.00
2023-06-25T11:19:23.847Z,4.70
2023-06-25T11:21:58.336Z,4.90
2023-06-25T11:24:41.527Z,4.70
2023-06-25T11:27:24.550Z,4.30
2023-06-25T11:29:59.652Z,5.00
2023-06-25T11:32:35.572Z,5.10
2023-06-25T11:35:16.356Z,4.50
2023-06-25T11:37:51.386Z,4.30
2023-06-25T11:40:29.208Z,4.50
2023-06-25T11:43:03.215Z,4.40
2023-06-25T11:45:45.454Z,4.20
2023-06-25T11:48:21.747Z,5.00
2023-06-25T11:50:55.592Z,4.60
2023-06-25T11:53:28.216Z,4.70
2023-06-25T11:58:30.937Z,5.00
2023-06-25T12:03:35.045Z,4.60
2023-06-25T12:06:08.167Z,4.40
2023-06-25T12:08:40.142Z,4.40
2023-06-25T12:11:14.686Z,4.60
2023-06-25T12:13:46.995Z,4.40
2023-06-25T12:16:19.478Z,4.60
2023-06-25T12:21:21.597Z,4.40
2023-06-25T12:23:53.460Z,4.50
2023-06-25T12:26:25.302Z,4.00
2023-06-25T12:28:57.133Z,4.90
2023-06-25T12:31:29.453Z,4.30
2023-06-25T12:34:02.042Z,4.80
2023-06-25T12:36:34.478Z,4.50
2023-06-25T12:39:06.508Z,4.60
2023-06-25T12:41:38.940Z,4.60
2023-06-25T12:44:11.099Z,4.70
2023-06-25T12:46:42.999Z,5.00
2023-06-25T12:51:46.435Z,4.30
2023-06-25T12:54:18.274Z,4.10
2023-06-25T12:56:50.245Z,5.10
2023-06-25T12:59:22.095Z,4.50
2023-06-25T13:01:57.649Z,4.20
2023-06-25T13:04:29.797Z,4.20
2023-06-25T13:07:01.884Z,4.20
2023-06-25T13:09:34.788Z,4.90
2023-06-25T13:12:07.459Z,4.80
2023-06-25T13:14:39.766Z,4.40
2023-06-25T13:17:11.793Z,4.30
2023-06-25T13:19:44.147Z,4.20
2023-06-25T13:22:16.589Z,4.60
2023-06-25T13:24:48.428Z,5.40
2023-06-25T13:27:20.346Z,4.20
2023-06-25T13:29:52.333Z,4.50
2023-06-25T13:32:24.616Z,4.70
2023-06-25T13:34:56.524Z,4.30
2023-06-25T13:37:28.702Z,4.30
2023-06-25T13:40:00.759Z,4.70
2023-06-25T13:42:34.222Z,4.40
2023-06-25T13:45:06.842Z,4.40
2023-06-25T13:47:38.696Z,4.50
2023-06-25T13:50:12.155Z,4.70
2023-06-25T13:52:44.109Z,4.20
2023-06-25T13:55:17.672Z,4.60
2023-06-25T13:57:49.583Z,4.60
2023-06-25T14:00:21.760Z,3.70
2023-06-25T14:03:10.612Z,4.50
2023-06-25T14:05:45.828Z,4.30
2023-06-25T14:08:18.053Z,4.40
2023-06-25T14:10:50.157Z,4.50
2023-06-25T14:13:23.370Z,3.80
2023-06-25T14:16:05.947Z,4.60
2023-06-25T14:18:47.210Z,4.60
2023-06-25T14:21:20.278Z,4.80
2023-06-25T14:23:53.008Z,4.40
2023-06-25T14:29:06.617Z,4.30
2023-06-25T14:31:42.894Z,4.70
2023-06-25T14:34:14.875Z,5.10
2023-06-25T14:36:47.114Z,5.80
2023-06-25T14:41:49.638Z,4.60
2023-06-25T14:44:21.516Z,5.90
2023-06-25T14:46:53.438Z,4.90
2023-06-25T14:49:25.482Z,4.60
2023-06-25T14:51:57.826Z,4.20
2023-06-25T14:54:29.708Z,4.60
2023-06-25T14:57:01.592Z,4.20
2023-06-25T14:59:33.768Z,4.20
2023-06-25T15:02:05.971Z,4.60
2023-06-25T15:04:39.946Z,4.40
2023-06-25T15:07:12.389Z,4.20
2023-06-25T15:09:44.298Z,4.30
2023-06-25T15:12:16.271Z,4.70
2023-06-25T15:14:48.362Z,4.60
2023-06-25T15:17:20.359Z,5.60
2023-06-25T15:19:52.305Z,5.30
2023-06-25T15:22:24.300Z,4.50
2023-06-25T15:24:56.256Z,5.20
2023-06-25T15:27:29.112Z,4.60
2023-06-25T15:30:02.711Z,4.90
2023-06-25T15:32:37.813Z,6.10
2023-06-25T15:35:11.357Z,4.80
2023-06-25T15:37:43.842Z,4.50
2023-06-25T15:40:16.431Z,5.00
2023-06-25T15:42:48.418Z,4.20
2023-06-25T15:47:51.448Z,4.60
2023-06-25T15:50:23.676Z,6.50
2023-06-25T15:52:55.818Z,5.80
2023-06-25T15:55:28.457Z,5.80
2023-06-25T15:58:02.820Z,5.10
2023-06-25T16:00:36.186Z,5.00
2023-06-25T16:03:10.034Z,4.70
2023-06-25T16:05:42.555Z,4.80
2023-06-25T16:08:14.928Z,4.80
2023-06-25T16:10:47.230Z,5.60
2023-06-25T16:13:19.244Z,7.40
2023-06-25T16:18:22.855Z,5.50
2023-06-25T16:20:54.871Z,8.20
2023-06-25T16:23:26.817Z,5.50
2023-06-25T16:25:59.044Z,7.40
2023-06-25T16:28:31.935Z,7.80
2023-06-25T16:31:04.381Z,5.00
2023-06-25T16:33:36.874Z,5.00
2023-06-25T16:36:09.777Z,5.00
2023-06-25T16:38:41.788Z,4.40
2023-06-25T16:43:44.237Z,4.60
2023-06-25T16:46:16.318Z,4.90
2023-06-25T16:51:21.385Z,5.10
2023-06-25T16:53:54.560Z,4.40
2023-06-25T16:56:26.738Z,5.90
2023-06-25T16:58:59.061Z,5.10
2023-06-25T17:01:31.184Z,4.80
2023-06-25T17:04:04.794Z,4.90
2023-06-25T17:06:38.919Z,5.20
2023-06-25T17:09:11.191Z,5.30
2023-06-25T17:11:43.936Z,4.90
2023-06-25T17:14:16.548Z,4.80
2023-06-25T17:16:48.678Z,5.10
2023-06-25T17:21:52.258Z,4.90
2023-06-25T17:24:24.323Z,4.90
2023-06-25T17:26:57.062Z,4.70
2023-06-25T17:29:29.165Z,5.20
2023-06-25T17:32:01.860Z,5.20
2023-06-25T17:34:34.175Z,7.10
2023-06-25T17:37:09.533Z,5.50
2023-06-25T17:39:42.193Z,4.70
2023-06-25T17:42:31.993Z,5.50
2023-06-25T17:45:22.450Z,5.20
2023-06-25T17:47:54.829Z,4.90
2023-06-25T17:50:26.928Z,5.40
2023-06-25T17:52:59.571Z,5.10
2023-06-25T17:55:32.165Z,5.20
2023-06-25T17:58:04.261Z,4.80
2023-06-25T18:00:37.020Z,5.30
2023-06-25T18:03:09.269Z,5.00
2023-06-25T18:05:41.764Z,4.60
2023-06-25T18:08:13.822Z,4.70
2023-06-25T18:10:46.378Z,4.80
2023-06-25T18:15:49.333Z,5.10
2023-06-25T18:20:54.409Z,4.80
2023-06-25T18:23:26.459Z,5.10
2023-06-25T18:25:58.371Z,5.10
2023-06-25T18:28:30.253Z,4.60
2023-06-25T18:31:04.738Z,4.90
2023-06-25T18:33:37.032Z,4.70
2023-06-25T18:36:10.372Z,5.30
2023-06-25T18:38:42.275Z,5.40
2023-06-25T18:41:14.386Z,5.20
2023-06-25T18:43:46.804Z,6.00
2023-06-25T18:46:19.190Z,5.80
2023-06-25T18:48:51.025Z,5.70
2023-06-25T18:53:53.716Z,5.80
2023-06-25T18:56:25.581Z,5.60
2023-06-25T18:58:57.394Z,5.90
2023-06-25T19:01:29.296Z,5.70
2023-06-25T19:04:02.744Z,5.90
2023-06-25T19:09:05.840Z,6.00
2023-06-25T19:11:37.714Z,6.70
2023-06-25T19:14:10.525Z,6.90
2023-06-25T19:19:12.934Z,6.10
2023-06-25T19:21:45.561Z,5.90
2023-06-25T19:24:17.683Z,5.20
2023-06-25T19:26:49.781Z,5.50
2023-06-25T19:29:22.090Z,5.90
2023-06-25T19:31:54.237Z,5.50
2023-06-25T19:34:27.238Z,5.70
2023-06-25T19:36:59.920Z,5.60
2023-06-25T19:39:32.278Z,5.70
2023-06-25T19:42:04.412Z,6.50
2023-06-25T19:44:36.868Z,5.90
2023-06-25T19:47:09.508Z,5.80
2023-06-25T19:49:41.545Z,6.30
2023-06-25T19:52:13.658Z,6.40
2023-06-25T19:54:47.094Z,5.90
2023-06-25T19:57:19.197Z,6.70
2023-06-25T19:59:51.338Z,5.90
2023-06-25T20:02:23.278Z,5.70
2023-06-25T20:04:55.395Z,5.70
2023-06-25T20:07:31.784Z,6.80
2023-06-25T20:10:04.389Z,7.10
2023-06-25T20:12:37.169Z,7.00
2023-06-25T20:15:10.991Z,6.90
2023-06-25T20:17:43.310Z,7.60
2023-06-25T20:20:15.722Z,6.60
2023-06-25T20:22:48.254Z,6.70
2023-06-25T20:25:20.253Z,7.00
2023-06-25T20:27:52.225Z,6.70
2023-06-25T20:30:24.381Z,6.00
2023-06-25T20:35:28.553Z,7.30
2023-06-25T20:38:00.529Z,6.80
2023-06-25T20:40:33.180Z,7.30
2023-06-25T20:43:06.866Z,6.60
2023-06-25T20:45:40.894Z,6.60
2023-06-25T20:48:12.924Z,6.90
2023-06-25T20:50:45.051Z,7.00
2023-06-25T20:53:17.023Z,7.20
2023-06-25T20:55:49.222Z,7.80
2023-06-25T20:58:21.632Z,7.60
2023-06-25T21:00:54.166Z,7.30
2023-06-25T21:05:59.269Z,7.20
2023-06-25T21:08:32.627Z,7.70
2023-06-25T21:11:04.602Z,7.00
2023-06-25T21:13:37.273Z,7.40
2023-06-25T21:16:09.366Z,8.00
2023-06-25T21:18:41.385Z,8.50
2023-06-25T21:21:13.472Z,7.00
2023-06-25T21:23:45.483Z,7.50
2023-06-25T21:26:17.599Z,7.90
2023-06-25T21:28:49.528Z,7.40
2023-06-25T21:31:21.723Z,7.20
2023-06-25T21:33:54.005Z,7.70
2023-06-25T21:36:26.024Z,7.50
2023-06-25T21:38:58.422Z,7.60
2023-06-25T21:41:30.429Z,7.50
2023-06-25T21:44:02.408Z,7.90
2023-06-25T21:46:35.940Z,8.00
2023-06-25T21:49:07.906Z,8.50
2023-06-25T21:51:39.807Z,8.00
2023-06-25T21:54:11.710Z,7.80
2023-06-25T21:56:44.065Z,8.00
2023-06-25T21:59:16.054Z,8.10
2023-06-25T22:01:48.387Z,7.80
2023-06-25T22:06:54.725Z,9.00
2023-06-25T22:09:27.333Z,8.60
2023-06-25T22:11:59.685Z,8.50
2023-06-25T22:14:32.604Z,8.90
2023-06-25T22:17:06.258Z,9.60
2023-06-25T22:19:38.324Z,9.50
2023-06-25T22:22:10.352Z,9.80
2023-06-25T22:24:42.350Z,8.80
2023-06-25T22:27:14.702Z,9.70
2023-06-25T22:29:48.654Z,12.00
2023-06-25T22:32:20.857Z,10.30
2023-06-25T22:34:52.885Z,9.40
2023-06-25T22:37:24.872Z,9.50
2023-06-25T22:39:59.736Z,9.80
2023-06-25T22:42:31.716Z,9.50
2023-06-25T22:45:03.947Z,9.80
2023-06-25T22:47:36.645Z,9.80
2023-06-25T22:50:11.380Z,9.60
2023-06-25T22:52:43.534Z,9.50
2023-06-25T22:55:16.205Z,9.90
2023-06-25T23:00:19.210Z,9.50
2023-06-25T23:02:51.279Z,8.70
2023-06-25T23:05:24.902Z,8.50
2023-06-25T23:07:56.762Z,7.90
2023-06-25T23:10:28.628Z,8.10
2023-06-25T23:13:00.673Z,8.00
2023-06-25T23:15:32.862Z,8.50
2023-06-25T23:18:08.267Z,8.20
2023-06-25T23:20:40.805Z,8.90
2023-06-25T23:23:12.957Z,7.90
2023-06-25T23:25:47.793Z,8.10
2023-06-25T23:28:19.576Z,7.50
2023-06-25T23:30:51.398Z,7.60
2023-06-25T23:33:23.814Z,7.30
2023-06-25T23:35:55.562Z,7.60
2023-06-25T23:38:27.487Z,8.00
2023-06-25T23:40:59.448Z,7.00
2023-06-25T23:43:31.443Z,7.60
2023-06-25T23:46:03.448Z,6.70
2023-06-25T23:48:35.332Z,8.20
2023-06-25T23:51:07.782Z,6.70
2023-06-25T23:53:40.788Z,6.80
2023-06-25T23:56:13.239Z,6.90
2023-06-25T23:58:45.300Z,7.00
